Aérodrome :
LOGIN :

S'inscrire | Disclaimer

   EN    FR    IT 

 










Légende :    VFR   VFR Marginal   IFR   IFR Intensif   IFR Très Intensif
Visi : 
Plafond : 
>= 8 km
>= 3000ft
5 à 8 km
1000 à 3000 ft
1500m à 5 km
500 à 1000 ft
800 à 1500m
200 à 500 ft
< 800m
< 200 ft
Symboles :   Orages  Brouillard  Fortes neiges  Fortes précipitations  Vent > 20 kt
SIGMETs :   Divers  Orages  Givrage  Turbulence  Onde Orograph.  Cendres Volcan.






- Altitude de l'aérodrome : 443 ft
- Code IATA : SQQ


EYSA - Siauliai

DERNIER METAR :
  • 300720Z 33005KT CAVOK M01/M07 Q1021 R14L/19//95 R14R/19//95 BLU NOSIG

METARs EXPIRÉS :
  • 300650Z 34006KT CAVOK M01/M07 Q1020 R14L/19//95 R14R/19//95 BLU NOSIG
  • 300620Z 33006KT 300V360 CAVOK M02/M07 Q1020 R14L/19//95 R14R/19//95 BLU NOSIG
  • 300550Z 31005KT CAVOK M03/M07 Q1020 R14L/19//95 R14R/19//95 BLU NOSIG
  • 300520Z 32005KT CAVOK M04/M07 Q1020 R14L/19//95 R14R/19//95 BLU NOSIG

TAF TAF EYSA
Valide du 30 à 06h jusqu'au 30 à 15h UTC


300503Z 3006/3015 VRB05KT 9000 NSC
BECMG 3012/3013 BKN020
TEMPO 3013/3015 0800 +SHSNRA BKN005 BKN015CB



MET'MAP, la Météo Aéronautique d'un coup d'oeil ! - Copyright ORBIFLY Décembre 2007 - Disclaimer

ORBIFLY MET'MAP TEAM :

Programmation & Développement : Alexandra Zaïnal
Sur une idée originale de : Baudouin d'Aumeries
Assistance à la programmation : Marc-Olivier Méhu
Soutien technique & logistique : Manuel Goepfert

Contact : metmap@orbifly.com




SOURCES & CREDITS :

   NOAA